sensor_id;sensor_type;location;lat;lon;timestamp;P1;durP1;ratioP1;P2;durP2;ratioP2
18286;SDS011;9269;50.838;12.094;2023-03-04T00:02:02;12.43;;;9.00;;
18286;SDS011;9269;50.838;12.094;2023-03-04T00:04:31;14.27;;;10.40;;
18286;SDS011;9269;50.838;12.094;2023-03-04T00:06:59;12.20;;;9.67;;
18286;SDS011;9269;50.838;12.094;2023-03-04T00:09:27;11.97;;;9.50;;
18286;SDS011;9269;50.838;12.094;2023-03-04T00:11:57;13.73;;;10.57;;
18286;SDS011;9269;50.838;12.094;2023-03-04T00:14:25;13.47;;;9.67;;
18286;SDS011;9269;50.838;12.094;2023-03-04T00:16:56;13.37;;;10.27;;
18286;SDS011;9269;50.838;12.094;2023-03-04T00:19:24;14.73;;;10.33;;
18286;SDS011;9269;50.838;12.094;2023-03-04T00:21:53;13.63;;;10.07;;
18286;SDS011;9269;50.838;12.094;2023-03-04T00:24:21;14.23;;;10.47;;
18286;SDS011;9269;50.838;12.094;2023-03-04T00:26:50;14.63;;;9.67;;
18286;SDS011;9269;50.838;12.094;2023-03-04T00:29:20;14.53;;;10.23;;
18286;SDS011;9269;50.838;12.094;2023-03-04T00:31:48;15.20;;;10.47;;
18286;SDS011;9269;50.838;12.094;2023-03-04T00:34:17;12.67;;;10.00;;
18286;SDS011;9269;50.838;12.094;2023-03-04T00:36:46;14.53;;;10.10;;
18286;SDS011;9269;50.838;12.094;2023-03-04T00:39:15;13.57;;;9.23;;
18286;SDS011;9269;50.838;12.094;2023-03-04T00:41:44;14.47;;;10.20;;
18286;SDS011;9269;50.838;12.094;2023-03-04T00:44:14;16.30;;;11.00;;
18286;SDS011;9269;50.838;12.094;2023-03-04T00:46:44;14.27;;;10.47;;
18286;SDS011;9269;50.838;12.094;2023-03-04T00:49:12;14.87;;;10.50;;
18286;SDS011;9269;50.838;12.094;2023-03-04T00:51:41;15.50;;;10.00;;
18286;SDS011;9269;50.838;12.094;2023-03-04T00:54:09;14.07;;;9.43;;
18286;SDS011;9269;50.838;12.094;2023-03-04T00:56:38;14.73;;;11.17;;
18286;SDS011;9269;50.838;12.094;2023-03-04T00:59:06;14.97;;;10.60;;
18286;SDS011;9269;50.838;12.094;2023-03-04T01:01:35;13.63;;;9.90;;
18286;SDS011;9269;50.838;12.094;2023-03-04T01:04:04;15.17;;;9.90;;
18286;SDS011;9269;50.838;12.094;2023-03-04T01:06:33;15.80;;;10.03;;
18286;SDS011;9269;50.838;12.094;2023-03-04T01:09:01;12.70;;;9.53;;
18286;SDS011;9269;50.838;12.094;2023-03-04T01:11:30;14.83;;;9.83;;
18286;SDS011;9269;50.838;12.094;2023-03-04T01:13:59;14.57;;;10.30;;
18286;SDS011;9269;50.838;12.094;2023-03-04T01:16:27;13.77;;;9.87;;
18286;SDS011;9269;50.838;12.094;2023-03-04T01:18:56;13.37;;;9.53;;
18286;SDS011;9269;50.838;12.094;2023-03-04T01:21:25;14.27;;;9.83;;
18286;SDS011;9269;50.838;12.094;2023-03-04T01:23:55;12.37;;;9.90;;
18286;SDS011;9269;50.838;12.094;2023-03-04T01:26:23;13.53;;;10.23;;
18286;SDS011;9269;50.838;12.094;2023-03-04T01:28:52;13.10;;;9.57;;
18286;SDS011;9269;50.838;12.094;2023-03-04T01:31:20;15.90;;;10.40;;
18286;SDS011;9269;50.838;12.094;2023-03-04T01:33:48;16.23;;;9.77;;
18286;SDS011;9269;50.838;12.094;2023-03-04T01:36:17;14.53;;;10.13;;
18286;SDS011;9269;50.838;12.094;2023-03-04T01:38:46;13.57;;;9.90;;
18286;SDS011;9269;50.838;12.094;2023-03-04T01:41:15;13.93;;;9.93;;
18286;SDS011;9269;50.838;12.094;2023-03-04T01:43:46;14.03;;;9.73;;
18286;SDS011;9269;50.838;12.094;2023-03-04T01:46:14;15.70;;;9.70;;
18286;SDS011;9269;50.838;12.094;2023-03-04T01:48:43;13.73;;;9.60;;
18286;SDS011;9269;50.838;12.094;2023-03-04T01:51:12;14.20;;;9.67;;
18286;SDS011;9269;50.838;12.094;2023-03-04T01:53:42;15.73;;;10.60;;
18286;SDS011;9269;50.838;12.094;2023-03-04T01:56:15;14.47;;;10.23;;
18286;SDS011;9269;50.838;12.094;2023-03-04T01:58:49;18.40;;;10.83;;
18286;SDS011;9269;50.838;12.094;2023-03-04T02:01:34;15.43;;;10.47;;
18286;SDS011;9269;50.838;12.094;2023-03-04T02:04:03;18.40;;;11.87;;
18286;SDS011;9269;50.838;12.094;2023-03-04T02:06:33;15.33;;;10.57;;
18286;SDS011;9269;50.838;12.094;2023-03-04T02:09:02;14.13;;;10.93;;
18286;SDS011;9269;50.838;12.094;2023-03-04T02:11:32;16.30;;;10.57;;
18286;SDS011;9269;50.838;12.094;2023-03-04T02:14:02;18.47;;;12.23;;
18286;SDS011;9269;50.838;12.094;2023-03-04T02:16:31;17.03;;;11.23;;
18286;SDS011;9269;50.838;12.094;2023-03-04T02:18:59;16.47;;;11.77;;
18286;SDS011;9269;50.838;12.094;2023-03-04T02:21:28;17.43;;;11.57;;
18286;SDS011;9269;50.838;12.094;2023-03-04T02:24:02;15.93;;;11.23;;
18286;SDS011;9269;50.838;12.094;2023-03-04T02:26:36;16.03;;;11.43;;
18286;SDS011;9269;50.838;12.094;2023-03-04T02:29:07;17.47;;;11.57;;
18286;SDS011;9269;50.838;12.094;2023-03-04T02:31:38;17.17;;;11.13;;
18286;SDS011;9269;50.838;12.094;2023-03-04T02:34:10;14.97;;;11.23;;
18286;SDS011;9269;50.838;12.094;2023-03-04T02:36:41;19.60;;;11.50;;
18286;SDS011;9269;50.838;12.094;2023-03-04T02:39:11;18.00;;;11.70;;
18286;SDS011;9269;50.838;12.094;2023-03-04T02:41:43;16.97;;;11.43;;
18286;SDS011;9269;50.838;12.094;2023-03-04T02:44:14;19.57;;;12.90;;
18286;SDS011;9269;50.838;12.094;2023-03-04T02:46:44;15.63;;;10.77;;
18286;SDS011;9269;50.838;12.094;2023-03-04T02:49:13;18.37;;;11.83;;
18286;SDS011;9269;50.838;12.094;2023-03-04T02:51:42;19.30;;;12.97;;
18286;SDS011;9269;50.838;12.094;2023-03-04T02:54:14;17.73;;;11.83;;
18286;SDS011;9269;50.838;12.094;2023-03-04T02:56:47;19.27;;;13.40;;
18286;SDS011;9269;50.838;12.094;2023-03-04T02:59:16;17.03;;;11.83;;
18286;SDS011;9269;50.838;12.094;2023-03-04T03:01:45;19.50;;;12.83;;
18286;SDS011;9269;50.838;12.094;2023-03-04T03:04:14;17.63;;;11.53;;
18286;SDS011;9269;50.838;12.094;2023-03-04T03:06:43;17.93;;;11.83;;
18286;SDS011;9269;50.838;12.094;2023-03-04T03:09:12;16.40;;;10.90;;
18286;SDS011;9269;50.838;12.094;2023-03-04T03:11:40;17.33;;;12.23;;
18286;SDS011;9269;50.838;12.094;2023-03-04T03:14:10;16.83;;;12.17;;
18286;SDS011;9269;50.838;12.094;2023-03-04T03:16:39;18.63;;;12.07;;
18286;SDS011;9269;50.838;12.094;2023-03-04T03:19:08;17.57;;;12.77;;
18286;SDS011;9269;50.838;12.094;2023-03-04T03:21:37;18.87;;;12.07;;
18286;SDS011;9269;50.838;12.094;2023-03-04T03:24:05;20.70;;;12.70;;
18286;SDS011;9269;50.838;12.094;2023-03-04T03:26:49;15.80;;;11.20;;
18286;SDS011;9269;50.838;12.094;2023-03-04T03:29:19;19.33;;;12.67;;
18286;SDS011;9269;50.838;12.094;2023-03-04T03:31:51;17.80;;;11.97;;
18286;SDS011;9269;50.838;12.094;2023-03-04T03:34:23;19.27;;;13.03;;
18286;SDS011;9269;50.838;12.094;2023-03-04T03:39:44;16.37;;;11.00;;
18286;SDS011;9269;50.838;12.094;2023-03-04T03:42:12;19.73;;;12.53;;
18286;SDS011;9269;50.838;12.094;2023-03-04T03:44:42;18.10;;;11.93;;
18286;SDS011;9269;50.838;12.094;2023-03-04T03:47:10;18.47;;;13.23;;
18286;SDS011;9269;50.838;12.094;2023-03-04T03:49:40;17.40;;;12.93;;
18286;SDS011;9269;50.838;12.094;2023-03-04T03:52:08;18.10;;;12.80;;
18286;SDS011;9269;50.838;12.094;2023-03-04T03:54:37;15.67;;;11.80;;
18286;SDS011;9269;50.838;12.094;2023-03-04T03:57:06;17.80;;;12.00;;
18286;SDS011;9269;50.838;12.094;2023-03-04T03:59:34;18.50;;;12.37;;
18286;SDS011;9269;50.838;12.094;2023-03-04T04:02:04;18.00;;;13.30;;
18286;SDS011;9269;50.838;12.094;2023-03-04T04:04:33;16.47;;;12.30;;
18286;SDS011;9269;50.838;12.094;2023-03-04T04:07:01;17.43;;;12.23;;
18286;SDS011;9269;50.838;12.094;2023-03-04T04:09:29;21.20;;;13.37;;
18286;SDS011;9269;50.838;12.094;2023-03-04T04:11:57;17.43;;;12.33;;
18286;SDS011;9269;50.838;12.094;2023-03-04T04:14:25;16.67;;;12.27;;
18286;SDS011;9269;50.838;12.094;2023-03-04T04:16:54;17.93;;;12.50;;
18286;SDS011;9269;50.838;12.094;2023-03-04T04:19:23;17.20;;;13.17;;
18286;SDS011;9269;50.838;12.094;2023-03-04T04:21:52;19.00;;;12.67;;
18286;SDS011;9269;50.838;12.094;2023-03-04T04:24:20;18.30;;;13.10;;
18286;SDS011;9269;50.838;12.094;2023-03-04T04:26:48;19.43;;;12.80;;
18286;SDS011;9269;50.838;12.094;2023-03-04T04:29:17;19.80;;;12.83;;
18286;SDS011;9269;50.838;12.094;2023-03-04T04:31:45;16.40;;;12.03;;
18286;SDS011;9269;50.838;12.094;2023-03-04T04:34:13;20.80;;;13.60;;
18286;SDS011;9269;50.838;12.094;2023-03-04T04:36:43;15.97;;;12.23;;
18286;SDS011;9269;50.838;12.094;2023-03-04T04:39:12;19.63;;;13.57;;
18286;SDS011;9269;50.838;12.094;2023-03-04T04:41:41;17.67;;;11.80;;
18286;SDS011;9269;50.838;12.094;2023-03-04T04:44:10;17.87;;;12.20;;
18286;SDS011;9269;50.838;12.094;2023-03-04T04:46:40;21.80;;;13.70;;
18286;SDS011;9269;50.838;12.094;2023-03-04T04:49:11;17.43;;;12.53;;
18286;SDS011;9269;50.838;12.094;2023-03-04T04:51:40;16.70;;;12.50;;
18286;SDS011;9269;50.838;12.094;2023-03-04T04:54:10;15.47;;;12.40;;
18286;SDS011;9269;50.838;12.094;2023-03-04T04:56:41;19.57;;;13.57;;
18286;SDS011;9269;50.838;12.094;2023-03-04T04:59:09;21.00;;;13.53;;
18286;SDS011;9269;50.838;12.094;2023-03-04T05:01:37;21.50;;;13.67;;
18286;SDS011;9269;50.838;12.094;2023-03-04T05:04:07;18.20;;;13.27;;
18286;SDS011;9269;50.838;12.094;2023-03-04T05:06:35;18.73;;;13.00;;
18286;SDS011;9269;50.838;12.094;2023-03-04T05:09:04;18.63;;;13.30;;
18286;SDS011;9269;50.838;12.094;2023-03-04T05:11:34;17.43;;;13.23;;
18286;SDS011;9269;50.838;12.094;2023-03-04T05:14:02;18.17;;;13.13;;
18286;SDS011;9269;50.838;12.094;2023-03-04T05:16:30;18.90;;;13.00;;
18286;SDS011;9269;50.838;12.094;2023-03-04T05:18:59;16.70;;;12.20;;
18286;SDS011;9269;50.838;12.094;2023-03-04T05:21:27;16.83;;;13.30;;
18286;SDS011;9269;50.838;12.094;2023-03-04T05:23:55;16.60;;;12.60;;
18286;SDS011;9269;50.838;12.094;2023-03-04T05:26:23;18.47;;;13.10;;
18286;SDS011;9269;50.838;12.094;2023-03-04T05:28:53;18.50;;;13.67;;
18286;SDS011;9269;50.838;12.094;2023-03-04T05:31:21;18.10;;;12.57;;
18286;SDS011;9269;50.838;12.094;2023-03-04T05:33:49;16.03;;;11.63;;
18286;SDS011;9269;50.838;12.094;2023-03-04T05:36:18;18.90;;;12.57;;
18286;SDS011;9269;50.838;12.094;2023-03-04T05:38:47;17.83;;;12.07;;
18286;SDS011;9269;50.838;12.094;2023-03-04T05:41:16;18.97;;;11.43;;
18286;SDS011;9269;50.838;12.094;2023-03-04T05:43:46;17.67;;;11.80;;
18286;SDS011;9269;50.838;12.094;2023-03-04T05:46:16;18.50;;;11.63;;
18286;SDS011;9269;50.838;12.094;2023-03-04T05:48:49;19.33;;;12.87;;
18286;SDS011;9269;50.838;12.094;2023-03-04T05:51:18;16.73;;;12.57;;
18286;SDS011;9269;50.838;12.094;2023-03-04T05:53:47;13.70;;;11.40;;
18286;SDS011;9269;50.838;12.094;2023-03-04T05:56:16;19.00;;;11.27;;
18286;SDS011;9269;50.838;12.094;2023-03-04T05:58:46;16.53;;;11.60;;
18286;SDS011;9269;50.838;12.094;2023-03-04T06:01:17;14.37;;;11.10;;
18286;SDS011;9269;50.838;12.094;2023-03-04T06:03:45;19.23;;;12.53;;
18286;SDS011;9269;50.838;12.094;2023-03-04T06:06:15;15.53;;;10.90;;
18286;SDS011;9269;50.838;12.094;2023-03-04T06:08:44;18.33;;;11.50;;
18286;SDS011;9269;50.838;12.094;2023-03-04T06:11:13;16.33;;;11.23;;
18286;SDS011;9269;50.838;12.094;2023-03-04T06:13:41;16.07;;;11.40;;
18286;SDS011;9269;50.838;12.094;2023-03-04T06:16:09;19.90;;;11.23;;
18286;SDS011;9269;50.838;12.094;2023-03-04T06:18:39;15.27;;;10.37;;
18286;SDS011;9269;50.838;12.094;2023-03-04T06:21:07;18.73;;;11.10;;
18286;SDS011;9269;50.838;12.094;2023-03-04T06:23:36;12.53;;;10.43;;
18286;SDS011;9269;50.838;12.094;2023-03-04T06:26:04;14.10;;;10.80;;
18286;SDS011;9269;50.838;12.094;2023-03-04T06:28:35;16.47;;;10.93;;
18286;SDS011;9269;50.838;12.094;2023-03-04T06:31:03;16.90;;;10.30;;
18286;SDS011;9269;50.838;12.094;2023-03-04T06:33:31;16.57;;;10.40;;
18286;SDS011;9269;50.838;12.094;2023-03-04T06:36:01;15.07;;;9.33;;
18286;SDS011;9269;50.838;12.094;2023-03-04T06:38:30;15.63;;;9.70;;
18286;SDS011;9269;50.838;12.094;2023-03-04T06:41:04;16.50;;;10.07;;
18286;SDS011;9269;50.838;12.094;2023-03-04T06:43:34;16.57;;;9.60;;
18286;SDS011;9269;50.838;12.094;2023-03-04T06:46:02;17.70;;;10.20;;
18286;SDS011;9269;50.838;12.094;2023-03-04T06:48:31;16.13;;;10.63;;
18286;SDS011;9269;50.838;12.094;2023-03-04T06:51:04;17.73;;;10.43;;
18286;SDS011;9269;50.838;12.094;2023-03-04T06:53:39;14.97;;;10.73;;
18286;SDS011;9269;50.838;12.094;2023-03-04T06:56:08;18.73;;;10.97;;
18286;SDS011;9269;50.838;12.094;2023-03-04T06:58:39;15.17;;;9.47;;
18286;SDS011;9269;50.838;12.094;2023-03-04T07:01:12;38.57;;;22.93;;
18286;SDS011;9269;50.838;12.094;2023-03-04T07:03:41;17.50;;;12.20;;
18286;SDS011;9269;50.838;12.094;2023-03-04T07:06:12;16.47;;;10.83;;
18286;SDS011;9269;50.838;12.094;2023-03-04T07:08:44;19.97;;;11.43;;
18286;SDS011;9269;50.838;12.094;2023-03-04T07:11:12;15.57;;;10.17;;
18286;SDS011;9269;50.838;12.094;2023-03-04T07:13:41;18.37;;;10.43;;
18286;SDS011;9269;50.838;12.094;2023-03-04T07:16:11;17.00;;;10.37;;
18286;SDS011;9269;50.838;12.094;2023-03-04T07:18:43;35.93;;;23.30;;
18286;SDS011;9269;50.838;12.094;2023-03-04T07:21:14;27.07;;;19.43;;
18286;SDS011;9269;50.838;12.094;2023-03-04T07:23:43;23.10;;;15.20;;
18286;SDS011;9269;50.838;12.094;2023-03-04T07:26:12;21.80;;;14.87;;
18286;SDS011;9269;50.838;12.094;2023-03-04T07:28:41;22.40;;;13.33;;
18286;SDS011;9269;50.838;12.094;2023-03-04T07:31:10;16.70;;;12.10;;
18286;SDS011;9269;50.838;12.094;2023-03-04T07:33:43;17.70;;;12.40;;
18286;SDS011;9269;50.838;12.094;2023-03-04T07:36:11;24.30;;;14.03;;
18286;SDS011;9269;50.838;12.094;2023-03-04T07:38:43;20.73;;;12.93;;
18286;SDS011;9269;50.838;12.094;2023-03-04T07:41:11;18.97;;;12.30;;
18286;SDS011;9269;50.838;12.094;2023-03-04T07:43:40;21.30;;;13.30;;
18286;SDS011;9269;50.838;12.094;2023-03-04T07:46:08;21.37;;;12.07;;
18286;SDS011;9269;50.838;12.094;2023-03-04T07:48:37;21.40;;;13.07;;
18286;SDS011;9269;50.838;12.094;2023-03-04T07:51:07;19.73;;;11.20;;
18286;SDS011;9269;50.838;12.094;2023-03-04T07:53:38;16.30;;;11.57;;
18286;SDS011;9269;50.838;12.094;2023-03-04T07:56:10;18.03;;;10.73;;
18286;SDS011;9269;50.838;12.094;2023-03-04T07:58:39;15.03;;;10.07;;
18286;SDS011;9269;50.838;12.094;2023-03-04T08:01:09;17.20;;;10.10;;
18286;SDS011;9269;50.838;12.094;2023-03-04T08:03:37;13.97;;;9.37;;
18286;SDS011;9269;50.838;12.094;2023-03-04T08:06:10;15.53;;;9.63;;
18286;SDS011;9269;50.838;12.094;2023-03-04T08:08:39;15.53;;;8.23;;
18286;SDS011;9269;50.838;12.094;2023-03-04T08:11:11;14.20;;;8.87;;
18286;SDS011;9269;50.838;12.094;2023-03-04T08:13:41;14.33;;;8.67;;
18286;SDS011;9269;50.838;12.094;2023-03-04T08:16:11;17.60;;;8.37;;
18286;SDS011;9269;50.838;12.094;2023-03-04T08:18:41;14.90;;;7.87;;
18286;SDS011;9269;50.838;12.094;2023-03-04T08:21:10;13.03;;;8.50;;
18286;SDS011;9269;50.838;12.094;2023-03-04T08:23:39;14.33;;;8.60;;
18286;SDS011;9269;50.838;12.094;2023-03-04T08:26:11;15.17;;;7.90;;
18286;SDS011;9269;50.838;12.094;2023-03-04T08:28:41;13.67;;;8.37;;
18286;SDS011;9269;50.838;12.094;2023-03-04T08:31:11;15.57;;;7.80;;
18286;SDS011;9269;50.838;12.094;2023-03-04T08:33:40;17.70;;;10.93;;
18286;SDS011;9269;50.838;12.094;2023-03-04T08:36:09;17.77;;;8.83;;
18286;SDS011;9269;50.838;12.094;2023-03-04T08:38:38;16.50;;;9.37;;
18286;SDS011;9269;50.838;12.094;2023-03-04T08:41:06;15.57;;;8.53;;
18286;SDS011;9269;50.838;12.094;2023-03-04T08:43:36;14.10;;;8.53;;
18286;SDS011;9269;50.838;12.094;2023-03-04T08:46:05;12.13;;;7.40;;
18286;SDS011;9269;50.838;12.094;2023-03-04T08:48:33;15.23;;;7.40;;
18286;SDS011;9269;50.838;12.094;2023-03-04T08:51:05;14.47;;;7.03;;
18286;SDS011;9269;50.838;12.094;2023-03-04T08:53:35;16.73;;;7.77;;
18286;SDS011;9269;50.838;12.094;2023-03-04T08:56:05;16.20;;;7.50;;
18286;SDS011;9269;50.838;12.094;2023-03-04T08:58:34;13.63;;;7.17;;
18286;SDS011;9269;50.838;12.094;2023-03-04T09:01:06;15.17;;;7.80;;
18286;SDS011;9269;50.838;12.094;2023-03-04T09:03:35;12.47;;;6.97;;
18286;SDS011;9269;50.838;12.094;2023-03-04T09:06:04;11.63;;;6.60;;
18286;SDS011;9269;50.838;12.094;2023-03-04T09:08:34;15.53;;;6.87;;
18286;SDS011;9269;50.838;12.094;2023-03-04T09:11:03;13.60;;;6.57;;
18286;SDS011;9269;50.838;12.094;2023-03-04T09:13:32;15.00;;;6.57;;
18286;SDS011;9269;50.838;12.094;2023-03-04T09:16:01;13.67;;;6.00;;
18286;SDS011;9269;50.838;12.094;2023-03-04T09:18:31;10.33;;;5.73;;
18286;SDS011;9269;50.838;12.094;2023-03-04T09:21:02;11.90;;;6.60;;
18286;SDS011;9269;50.838;12.094;2023-03-04T09:23:31;13.13;;;6.10;;
18286;SDS011;9269;50.838;12.094;2023-03-04T09:25:59;9.70;;;5.73;;
18286;SDS011;9269;50.838;12.094;2023-03-04T09:28:28;11.53;;;5.63;;
18286;SDS011;9269;50.838;12.094;2023-03-04T09:30:58;9.77;;;5.20;;
18286;SDS011;9269;50.838;12.094;2023-03-04T09:33:27;8.17;;;5.20;;
18286;SDS011;9269;50.838;12.094;2023-03-04T09:35:56;9.50;;;5.00;;
18286;SDS011;9269;50.838;12.094;2023-03-04T09:38:26;9.73;;;5.70;;
18286;SDS011;9269;50.838;12.094;2023-03-04T09:40:56;8.80;;;5.20;;
18286;SDS011;9269;50.838;12.094;2023-03-04T09:43:49;13.87;;;5.87;;
18286;SDS011;9269;50.838;12.094;2023-03-04T09:46:22;15.57;;;5.53;;
18286;SDS011;9269;50.838;12.094;2023-03-04T09:49:00;12.90;;;5.17;;
18286;SDS011;9269;50.838;12.094;2023-03-04T09:51:42;7.87;;;4.87;;
18286;SDS011;9269;50.838;12.094;2023-03-04T09:54:25;10.47;;;5.80;;
18286;SDS011;9269;50.838;12.094;2023-03-04T09:57:11;12.47;;;7.63;;
18286;SDS011;9269;50.838;12.094;2023-03-04T09:59:47;10.53;;;5.13;;
18286;SDS011;9269;50.838;12.094;2023-03-04T10:02:23;9.50;;;4.33;;
18286;SDS011;9269;50.838;12.094;2023-03-04T10:05:03;9.37;;;4.60;;
18286;SDS011;9269;50.838;12.094;2023-03-04T10:07:36;4.90;;;3.17;;
18286;SDS011;9269;50.838;12.094;2023-03-04T10:10:11;9.53;;;4.40;;
18286;SDS011;9269;50.838;12.094;2023-03-04T10:12:46;8.90;;;5.10;;
18286;SDS011;9269;50.838;12.094;2023-03-04T10:15:18;9.57;;;4.53;;
18286;SDS011;9269;50.838;12.094;2023-03-04T10:17:51;8.17;;;4.07;;
18286;SDS011;9269;50.838;12.094;2023-03-04T10:20:27;7.13;;;4.40;;
18286;SDS011;9269;50.838;12.094;2023-03-04T10:23:09;11.80;;;6.73;;
18286;SDS011;9269;50.838;12.094;2023-03-04T10:25:47;10.23;;;4.37;;
18286;SDS011;9269;50.838;12.094;2023-03-04T10:28:22;9.27;;;5.00;;
18286;SDS011;9269;50.838;12.094;2023-03-04T10:30:56;8.07;;;4.27;;
18286;SDS011;9269;50.838;12.094;2023-03-04T10:33:29;6.67;;;3.87;;
18286;SDS011;9269;50.838;12.094;2023-03-04T10:36:01;19.93;;;8.53;;
18286;SDS011;9269;50.838;12.094;2023-03-04T10:38:34;40.63;;;19.10;;
18286;SDS011;9269;50.838;12.094;2023-03-04T10:41:09;36.53;;;17.80;;
18286;SDS011;9269;50.838;12.094;2023-03-04T10:43:39;7.20;;;3.97;;
18286;SDS011;9269;50.838;12.094;2023-03-04T10:46:12;9.80;;;5.70;;
18286;SDS011;9269;50.838;12.094;2023-03-04T10:48:43;6.03;;;3.80;;
18286;SDS011;9269;50.838;12.094;2023-03-04T10:51:15;6.77;;;3.67;;
18286;SDS011;9269;50.838;12.094;2023-03-04T10:53:48;8.13;;;3.17;;
18286;SDS011;9269;50.838;12.094;2023-03-04T10:56:32;7.80;;;3.67;;
18286;SDS011;9269;50.838;12.094;2023-03-04T11:02:18;5.63;;;2.70;;
18286;SDS011;9269;50.838;12.094;2023-03-04T11:04:50;5.07;;;3.10;;
18286;SDS011;9269;50.838;12.094;2023-03-04T11:07:20;6.13;;;2.60;;
18286;SDS011;9269;50.838;12.094;2023-03-04T11:09:51;5.37;;;2.70;;
18286;SDS011;9269;50.838;12.094;2023-03-04T11:12:30;2.43;;;2.20;;
18286;SDS011;9269;50.838;12.094;2023-03-04T11:15:01;5.50;;;2.20;;
18286;SDS011;9269;50.838;12.094;2023-03-04T11:17:39;3.00;;;2.20;;
18286;SDS011;9269;50.838;12.094;2023-03-04T11:20:12;4.37;;;2.00;;
18286;SDS011;9269;50.838;12.094;2023-03-04T11:22:44;3.37;;;1.77;;
18286;SDS011;9269;50.838;12.094;2023-03-04T11:25:19;4.50;;;2.53;;
18286;SDS011;9269;50.838;12.094;2023-03-04T11:27:53;2.40;;;2.20;;
18286;SDS011;9269;50.838;12.094;2023-03-04T11:30:26;3.43;;;2.10;;
18286;SDS011;9269;50.838;12.094;2023-03-04T11:33:08;3.40;;;2.20;;
18286;SDS011;9269;50.838;12.094;2023-03-04T11:35:45;3.63;;;2.37;;
18286;SDS011;9269;50.838;12.094;2023-03-04T11:38:26;4.13;;;2.60;;
18286;SDS011;9269;50.838;12.094;2023-03-04T11:41:01;4.93;;;2.80;;
18286;SDS011;9269;50.838;12.094;2023-03-04T11:43:36;3.07;;;2.13;;
18286;SDS011;9269;50.838;12.094;2023-03-04T11:46:19;2.93;;;1.80;;
18286;SDS011;9269;50.838;12.094;2023-03-04T11:49:10;5.93;;;2.80;;
18286;SDS011;9269;50.838;12.094;2023-03-04T11:51:53;7.20;;;4.30;;
18286;SDS011;9269;50.838;12.094;2023-03-04T11:54:31;4.57;;;3.30;;
18286;SDS011;9269;50.838;12.094;2023-03-04T11:57:16;4.70;;;2.53;;
18286;SDS011;9269;50.838;12.094;2023-03-04T12:00:03;4.57;;;3.00;;
18286;SDS011;9269;50.838;12.094;2023-03-04T12:02:45;3.50;;;2.50;;
18286;SDS011;9269;50.838;12.094;2023-03-04T12:05:25;3.00;;;2.37;;
18286;SDS011;9269;50.838;12.094;2023-03-04T12:08:02;4.70;;;3.17;;
18286;SDS011;9269;50.838;12.094;2023-03-04T12:10:46;3.73;;;2.87;;
18286;SDS011;9269;50.838;12.094;2023-03-04T12:16:31;3.83;;;3.07;;
18286;SDS011;9269;50.838;12.094;2023-03-04T12:19:13;3.93;;;2.70;;
18286;SDS011;9269;50.838;12.094;2023-03-04T12:21:56;2.40;;;2.20;;
18286;SDS011;9269;50.838;12.094;2023-03-04T12:24:39;4.00;;;2.40;;
18286;SDS011;9269;50.838;12.094;2023-03-04T12:27:20;3.20;;;2.40;;
18286;SDS011;9269;50.838;12.094;2023-03-04T12:29:55;7.43;;;4.93;;
18286;SDS011;9269;50.838;12.094;2023-03-04T12:32:31;7.77;;;5.73;;
18286;SDS011;9269;50.838;12.094;2023-03-04T12:38:06;22.00;;;12.33;;
18286;SDS011;9269;50.838;12.094;2023-03-04T12:40:46;6.60;;;4.80;;
18286;SDS011;9269;50.838;12.094;2023-03-04T12:43:32;6.57;;;3.50;;
18286;SDS011;9269;50.838;12.094;2023-03-04T12:52:06;6.40;;;3.70;;
18286;SDS011;9269;50.838;12.094;2023-03-04T12:54:42;2.10;;;1.90;;
18286;SDS011;9269;50.838;12.094;2023-03-04T12:57:13;6.93;;;2.70;;
18286;SDS011;9269;50.838;12.094;2023-03-04T12:59:46;6.77;;;4.60;;
18286;SDS011;9269;50.838;12.094;2023-03-04T13:02:26;2.90;;;2.63;;
18286;SDS011;9269;50.838;12.094;2023-03-04T13:05:13;3.90;;;3.50;;
18286;SDS011;9269;50.838;12.094;2023-03-04T13:07:51;9.47;;;6.80;;
18286;SDS011;9269;50.838;12.094;2023-03-04T13:10:25;6.23;;;5.23;;
18286;SDS011;9269;50.838;12.094;2023-03-04T13:12:54;6.90;;;3.13;;
18286;SDS011;9269;50.838;12.094;2023-03-04T13:15:28;3.23;;;2.50;;
18286;SDS011;9269;50.838;12.094;2023-03-04T13:18:00;6.67;;;5.00;;
18286;SDS011;9269;50.838;12.094;2023-03-04T13:20:36;4.97;;;4.03;;
18286;SDS011;9269;50.838;12.094;2023-03-04T13:23:25;5.90;;;4.10;;
18286;SDS011;9269;50.838;12.094;2023-03-04T13:26:08;4.07;;;3.43;;
18286;SDS011;9269;50.838;12.094;2023-03-04T13:28:50;4.83;;;3.10;;
18286;SDS011;9269;50.838;12.094;2023-03-04T13:31:22;4.57;;;3.50;;
18286;SDS011;9269;50.838;12.094;2023-03-04T13:33:55;4.07;;;2.70;;
18286;SDS011;9269;50.838;12.094;2023-03-04T13:39:30;3.97;;;2.50;;
18286;SDS011;9269;50.838;12.094;2023-03-04T13:42:03;5.53;;;2.63;;
18286;SDS011;9269;50.838;12.094;2023-03-04T13:47:57;3.17;;;2.73;;
18286;SDS011;9269;50.838;12.094;2023-03-04T13:50:38;3.57;;;2.73;;
18286;SDS011;9269;50.838;12.094;2023-03-04T13:53:29;3.60;;;2.57;;
18286;SDS011;9269;50.838;12.094;2023-03-04T13:56:30;2.50;;;2.30;;
18286;SDS011;9269;50.838;12.094;2023-03-04T13:59:07;3.77;;;2.30;;
18286;SDS011;9269;50.838;12.094;2023-03-04T14:02:02;4.87;;;2.40;;
18286;SDS011;9269;50.838;12.094;2023-03-04T14:04:39;2.33;;;2.00;;
18286;SDS011;9269;50.838;12.094;2023-03-04T14:09:57;3.80;;;2.07;;
18286;SDS011;9269;50.838;12.094;2023-03-04T14:12:29;2.93;;;2.00;;
18286;SDS011;9269;50.838;12.094;2023-03-04T14:15:00;2.50;;;2.30;;
18286;SDS011;9269;50.838;12.094;2023-03-04T14:17:32;2.27;;;1.80;;
18286;SDS011;9269;50.838;12.094;2023-03-04T14:20:04;2.77;;;2.23;;
18286;SDS011;9269;50.838;12.094;2023-03-04T14:22:47;3.37;;;1.93;;
18286;SDS011;9269;50.838;12.094;2023-03-04T14:25:19;3.23;;;1.83;;
18286;SDS011;9269;50.838;12.094;2023-03-04T14:28:00;2.10;;;1.90;;
18286;SDS011;9269;50.838;12.094;2023-03-04T14:30:30;3.37;;;2.63;;
18286;SDS011;9269;50.838;12.094;2023-03-04T14:33:13;7.10;;;5.03;;
18286;SDS011;9269;50.838;12.094;2023-03-04T14:35:46;3.83;;;2.60;;
18286;SDS011;9269;50.838;12.094;2023-03-04T14:38:18;3.10;;;2.60;;
18286;SDS011;9269;50.838;12.094;2023-03-04T14:41:11;4.20;;;2.50;;
18286;SDS011;9269;50.838;12.094;2023-03-04T14:43:47;2.60;;;2.30;;
18286;SDS011;9269;50.838;12.094;2023-03-04T14:46:20;6.23;;;3.27;;
18286;SDS011;9269;50.838;12.094;2023-03-04T14:48:52;4.30;;;2.87;;
18286;SDS011;9269;50.838;12.094;2023-03-04T14:51:27;4.23;;;2.80;;
18286;SDS011;9269;50.838;12.094;2023-03-04T14:54:03;5.23;;;4.17;;
18286;SDS011;9269;50.838;12.094;2023-03-04T14:56:33;13.50;;;9.93;;
18286;SDS011;9269;50.838;12.094;2023-03-04T14:59:03;13.63;;;9.33;;
18286;SDS011;9269;50.838;12.094;2023-03-04T15:01:32;9.17;;;5.93;;
18286;SDS011;9269;50.838;12.094;2023-03-04T15:04:04;5.93;;;3.63;;
18286;SDS011;9269;50.838;12.094;2023-03-04T15:06:35;4.13;;;2.57;;
18286;SDS011;9269;50.838;12.094;2023-03-04T15:09:06;3.90;;;2.40;;
18286;SDS011;9269;50.838;12.094;2023-03-04T15:11:44;2.47;;;2.23;;
18286;SDS011;9269;50.838;12.094;2023-03-04T15:17:21;2.30;;;2.10;;
18286;SDS011;9269;50.838;12.094;2023-03-04T15:19:59;2.83;;;2.10;;
18286;SDS011;9269;50.838;12.094;2023-03-04T15:25:24;5.03;;;2.50;;
18286;SDS011;9269;50.838;12.094;2023-03-04T15:27:53;3.53;;;2.87;;
18286;SDS011;9269;50.838;12.094;2023-03-04T15:30:24;2.50;;;2.20;;
18286;SDS011;9269;50.838;12.094;2023-03-04T15:32:54;2.70;;;2.50;;
18286;SDS011;9269;50.838;12.094;2023-03-04T15:35:24;3.33;;;2.80;;